createdAt,value
2024-01-18T00:01:52.220Z,5.98
2024-01-18T00:05:00.381Z,5.84
2024-01-18T00:08:08.786Z,5.94
2024-01-18T00:11:18.775Z,5.79
2024-01-18T00:14:26.997Z,5.74
2024-01-18T00:17:35.564Z,5.73
2024-01-18T00:20:43.895Z,5.68
2024-01-18T00:23:52.344Z,5.63
2024-01-18T00:27:02.641Z,5.50
2024-01-18T00:30:12.392Z,5.49
2024-01-18T00:33:20.819Z,5.66
2024-01-18T00:36:30.374Z,5.64
2024-01-18T00:39:43.850Z,5.58
2024-01-18T00:42:53.593Z,5.49
2024-01-18T00:46:05.969Z,5.59
2024-01-18T00:49:14.332Z,5.54
2024-01-18T00:52:22.577Z,5.47
2024-01-18T00:55:30.715Z,5.54
2024-01-18T00:58:42.168Z,5.50
2024-01-18T01:01:50.750Z,5.44
2024-01-18T01:04:59.559Z,5.60
2024-01-18T01:08:08.011Z,5.53
2024-01-18T01:11:16.918Z,5.55
2024-01-18T01:14:26.452Z,5.52
2024-01-18T01:17:34.673Z,5.54
2024-01-18T01:20:43.161Z,5.63
2024-01-18T01:23:52.918Z,5.58
2024-01-18T01:27:01.813Z,5.59
2024-01-18T01:30:13.052Z,5.59
2024-01-18T01:33:21.369Z,5.52
2024-01-18T01:36:29.774Z,5.58
2024-01-18T01:39:38.066Z,5.49
2024-01-18T01:42:46.332Z,5.54
2024-01-18T01:45:55.892Z,5.73
2024-01-18T01:49:08.095Z,5.58
2024-01-18T01:52:17.520Z,5.58
2024-01-18T01:55:26.044Z,5.57
2024-01-18T01:58:35.253Z,5.54
2024-01-18T02:01:47.104Z,5.35
2024-01-18T02:04:56.556Z,5.48
2024-01-18T02:08:05.395Z,5.60
2024-01-18T02:11:15.590Z,5.58
2024-01-18T02:14:24.128Z,5.61
2024-01-18T02:17:33.810Z,5.57
2024-01-18T02:20:44.535Z,5.60
2024-01-18T02:24:01.825Z,5.60
2024-01-18T02:27:11.430Z,5.78
2024-01-18T02:30:19.741Z,5.71
2024-01-18T02:33:28.126Z,5.66
2024-01-18T02:36:36.489Z,5.59
2024-01-18T02:39:44.836Z,5.45
2024-01-18T02:42:55.485Z,5.55
2024-01-18T02:46:03.723Z,5.63
2024-01-18T02:49:11.924Z,5.65
2024-01-18T02:52:20.510Z,5.68
2024-01-18T02:55:28.755Z,5.67
2024-01-18T02:58:38.284Z,5.56
2024-01-18T03:01:46.463Z,5.42
2024-01-18T03:04:54.743Z,5.38
2024-01-18T03:08:03.177Z,5.53
2024-01-18T03:11:11.383Z,5.49
2024-01-18T03:14:21.633Z,5.44
2024-01-18T03:17:29.837Z,5.38
2024-01-18T03:20:38.009Z,5.43
2024-01-18T03:23:46.165Z,5.37
2024-01-18T03:30:17.488Z,5.28
2024-01-18T03:33:26.326Z,5.21
2024-01-18T03:36:34.669Z,5.14
2024-01-18T03:39:42.963Z,5.13
2024-01-18T03:42:51.311Z,5.28
2024-01-18T03:46:00.948Z,5.26
2024-01-18T03:49:09.580Z,5.17
2024-01-18T03:52:18.161Z,5.08
2024-01-18T03:55:26.428Z,5.16
2024-01-18T03:58:34.655Z,5.25
2024-01-18T04:01:44.852Z,5.20
2024-01-18T04:04:54.560Z,5.11
2024-01-18T04:08:02.757Z,5.18
2024-01-18T04:11:11.125Z,5.03
2024-01-18T04:14:24.728Z,4.98
2024-01-18T04:17:34.508Z,5.08
2024-01-18T04:20:42.909Z,4.98
2024-01-18T04:23:51.209Z,4.98
2024-01-18T04:26:59.694Z,5.11
2024-01-18T04:30:09.989Z,5.19
2024-01-18T04:33:20.403Z,5.20
2024-01-18T04:36:28.824Z,5.31
2024-01-18T04:39:37.136Z,5.23
2024-01-18T04:42:45.658Z,5.33
2024-01-18T04:45:54.189Z,5.32
2024-01-18T04:49:05.004Z,5.40
2024-01-18T04:52:13.357Z,5.64
2024-01-18T04:55:22.261Z,5.54
2024-01-18T04:58:30.529Z,5.64
2024-01-18T05:01:41.004Z,5.67
2024-01-18T05:04:51.052Z,5.65
2024-01-18T05:07:59.422Z,5.62
2024-01-18T05:11:08.782Z,5.63
2024-01-18T05:14:17.355Z,5.67
2024-01-18T05:17:35.292Z,5.67
2024-01-18T05:20:44.919Z,5.45
2024-01-18T05:23:53.291Z,5.44
2024-01-18T05:27:01.629Z,5.42
2024-01-18T05:30:11.460Z,5.38
2024-01-18T05:33:20.254Z,5.27
2024-01-18T05:36:30.099Z,5.06
2024-01-18T05:39:38.474Z,4.96
2024-01-18T05:42:46.872Z,4.81
2024-01-18T05:45:56.064Z,4.63
2024-01-18T05:49:04.691Z,4.63
2024-01-18T05:52:14.808Z,4.35
2024-01-18T05:55:23.361Z,4.30
2024-01-18T05:58:33.272Z,4.13
2024-01-18T06:01:42.675Z,4.26
2024-01-18T06:04:50.933Z,4.13
2024-01-18T06:08:00.904Z,4.06
2024-01-18T06:11:09.819Z,3.99
2024-01-18T06:14:17.983Z,4.01
2024-01-18T06:17:26.303Z,4.05
2024-01-18T06:20:34.802Z,3.98
2024-01-18T06:23:44.505Z,3.99
2024-01-18T06:26:54.933Z,3.95
2024-01-18T06:30:04.108Z,3.95
2024-01-18T06:33:14.246Z,3.90
2024-01-18T06:36:23.628Z,3.83
2024-01-18T06:39:33.476Z,3.75
2024-01-18T06:42:41.870Z,3.71
2024-01-18T06:45:55.812Z,3.83
2024-01-18T06:49:04.786Z,3.83
2024-01-18T06:52:13.099Z,3.90
2024-01-18T06:55:23.599Z,4.03
2024-01-18T06:58:31.807Z,4.06
2024-01-18T07:01:40.212Z,4.26
2024-01-18T07:04:48.757Z,4.13
2024-01-18T07:07:57.390Z,4.16
2024-01-18T07:11:07.420Z,4.16
2024-01-18T07:14:16.052Z,4.15
2024-01-18T07:17:24.305Z,4.17
2024-01-18T07:20:32.570Z,4.15
2024-01-18T07:23:40.758Z,4.17
2024-01-18T07:26:50.342Z,4.15
2024-01-18T07:29:58.672Z,4.17
2024-01-18T07:33:08.067Z,4.30
2024-01-18T07:36:16.486Z,4.32
2024-01-18T07:39:25.444Z,4.37
2024-01-18T07:42:36.803Z,4.38
2024-01-18T07:45:46.707Z,4.34
2024-01-18T07:48:55.306Z,4.43
2024-01-18T07:52:03.548Z,4.51
2024-01-18T07:55:11.842Z,4.55
2024-01-18T07:58:24.536Z,4.58
2024-01-18T08:01:36.416Z,4.56
2024-01-18T08:04:46.570Z,4.58
2024-01-18T08:07:54.987Z,4.59
2024-01-18T08:11:03.289Z,4.48
2024-01-18T08:14:16.283Z,4.53
2024-01-18T08:17:26.297Z,4.57
2024-01-18T08:20:34.943Z,4.73
2024-01-18T08:23:43.187Z,4.77
2024-01-18T08:26:51.396Z,4.91
2024-01-18T08:30:01.174Z,5.04
2024-01-18T08:33:10.373Z,5.17
2024-01-18T08:36:19.185Z,4.93
2024-01-18T08:39:28.081Z,4.96
2024-01-18T08:42:36.983Z,5.02
2024-01-18T08:45:47.128Z,5.06
2024-01-18T08:48:55.457Z,5.21
2024-01-18T08:52:04.169Z,5.17
2024-01-18T08:55:12.424Z,5.33
2024-01-18T08:58:20.674Z,5.56
2024-01-18T09:01:30.315Z,5.69
2024-01-18T09:04:39.451Z,5.73
2024-01-18T09:07:47.905Z,5.70
2024-01-18T09:10:56.243Z,5.82
2024-01-18T09:14:04.784Z,5.76
2024-01-18T09:17:14.629Z,5.91
2024-01-18T09:20:23.659Z,5.93
2024-01-18T09:23:31.942Z,6.09
2024-01-18T09:26:40.284Z,6.21
2024-01-18T09:29:48.596Z,6.28
2024-01-18T09:32:58.280Z,6.59
2024-01-18T09:36:07.284Z,6.81
2024-01-18T09:39:18.353Z,7.00
2024-01-18T09:42:34.300Z,7.04
2024-01-18T09:45:49.182Z,7.31
2024-01-18T09:49:03.185Z,7.23
2024-01-18T09:52:13.955Z,7.18
2024-01-18T09:55:22.264Z,7.33
2024-01-18T09:58:31.462Z,7.25
2024-01-18T10:01:40.400Z,7.23
2024-01-18T10:04:51.546Z,7.04
2024-01-18T10:07:59.925Z,6.91
2024-01-18T10:11:08.189Z,6.64
2024-01-18T10:14:17.236Z,6.68
2024-01-18T10:17:27.040Z,6.64
2024-01-18T10:20:37.831Z,6.61
2024-01-18T10:23:46.544Z,6.76
2024-01-18T10:27:05.463Z,6.91
2024-01-18T10:30:16.917Z,7.21
2024-01-18T10:33:25.374Z,7.45
2024-01-18T10:36:36.251Z,7.53
2024-01-18T10:39:48.236Z,7.26
2024-01-18T10:42:57.379Z,7.57
2024-01-18T10:46:07.565Z,8.10
2024-01-18T10:49:17.215Z,8.29
2024-01-18T10:52:28.569Z,8.67
2024-01-18T10:55:37.044Z,9.13
2024-01-18T10:58:46.079Z,9.46
2024-01-18T11:01:55.103Z,9.84
2024-01-18T11:05:04.378Z,9.94
2024-01-18T11:08:15.337Z,9.99
2024-01-18T11:11:23.824Z,10.07
2024-01-18T11:14:34.259Z,9.88
2024-01-18T11:17:47.797Z,9.92
2024-01-18T11:21:09.576Z,9.55
2024-01-18T11:24:20.612Z,9.48
2024-01-18T11:27:29.060Z,9.50
2024-01-18T11:30:40.914Z,9.32
2024-01-18T11:33:51.818Z,9.13
2024-01-18T11:37:14.938Z,9.04
2024-01-18T11:40:25.555Z,8.93
2024-01-18T11:43:55.643Z,8.84
2024-01-18T11:47:04.736Z,9.08
2024-01-18T11:50:13.905Z,9.23
2024-01-18T11:53:22.493Z,9.25
2024-01-18T11:56:36.891Z,9.37
2024-01-18T11:59:47.056Z,9.56
2024-01-18T12:02:56.909Z,9.80
2024-01-18T12:06:05.613Z,9.92
2024-01-18T12:09:13.908Z,9.95
2024-01-18T12:12:23.859Z,9.91
2024-01-18T12:15:33.229Z,9.87
2024-01-18T12:18:42.625Z,9.84
2024-01-18T12:21:51.696Z,9.68
2024-01-18T12:25:03.406Z,9.62
2024-01-18T12:28:15.762Z,9.54
2024-01-18T12:31:24.549Z,9.46
2024-01-18T12:34:34.140Z,9.41
2024-01-18T12:37:42.601Z,9.33
2024-01-18T12:40:53.166Z,9.33
2024-01-18T12:44:08.155Z,9.30
2024-01-18T12:47:17.094Z,9.21
2024-01-18T12:50:26.555Z,9.23
2024-01-18T12:53:35.052Z,9.17
2024-01-18T12:56:46.236Z,9.18
2024-01-18T12:59:55.833Z,9.22
2024-01-18T13:03:14.687Z,9.13
2024-01-18T13:06:23.603Z,8.99
2024-01-18T13:09:35.019Z,8.87
2024-01-18T13:12:46.210Z,8.66
2024-01-18T13:16:00.265Z,8.59
2024-01-18T13:19:10.075Z,8.48
2024-01-18T13:22:18.387Z,8.41
2024-01-18T13:25:26.618Z,8.34
2024-01-18T13:28:35.394Z,8.18
2024-01-18T13:31:45.240Z,8.23
2024-01-18T13:34:53.522Z,8.12
2024-01-18T13:38:02.529Z,8.12
2024-01-18T13:41:11.972Z,8.12
2024-01-18T13:44:20.622Z,8.11
2024-01-18T13:47:30.550Z,8.18
2024-01-18T13:50:38.780Z,8.16
2024-01-18T13:53:51.349Z,8.27
2024-01-18T13:56:59.773Z,8.30
2024-01-18T14:00:09.955Z,8.24
2024-01-18T14:03:22.471Z,8.19
2024-01-18T14:06:31.821Z,8.21
2024-01-18T14:09:41.536Z,8.16
2024-01-18T14:12:50.841Z,8.09
2024-01-18T14:16:00.036Z,8.15
2024-01-18T14:19:11.203Z,8.14
2024-01-18T14:22:19.466Z,8.23
2024-01-18T14:25:27.796Z,8.13
2024-01-18T14:28:37.739Z,8.27
2024-01-18T14:31:46.000Z,8.29
2024-01-18T14:34:55.718Z,8.36
2024-01-18T14:38:06.237Z,8.37
2024-01-18T14:41:17.278Z,8.46
2024-01-18T14:44:25.978Z,8.51
2024-01-18T14:47:34.293Z,8.53
2024-01-18T14:50:47.207Z,8.50
2024-01-18T14:53:55.543Z,7.28
2024-01-18T14:57:03.979Z,5.76
2024-01-18T15:00:16.178Z,5.34
2024-01-18T15:03:24.629Z,5.09
2024-01-18T15:06:34.946Z,4.92
2024-01-18T15:09:44.268Z,4.73
2024-01-18T15:12:54.626Z,4.65
2024-01-18T15:16:08.243Z,4.57
2024-01-18T15:19:18.075Z,4.32
2024-01-18T15:22:28.372Z,4.20
2024-01-18T15:29:05.340Z,4.04
2024-01-18T15:32:14.037Z,3.96
2024-01-18T15:35:23.197Z,3.82
2024-01-18T15:38:32.962Z,3.74
2024-01-18T15:41:46.484Z,3.62
2024-01-18T15:44:55.110Z,3.49
2024-01-18T15:48:03.855Z,3.39
2024-01-18T15:51:14.424Z,3.30
2024-01-18T15:54:24.480Z,3.01
2024-01-18T15:57:32.905Z,2.80
2024-01-18T16:00:42.081Z,2.64
2024-01-18T16:03:50.475Z,2.39
2024-01-18T16:06:58.838Z,2.17
2024-01-18T16:10:10.406Z,1.95
2024-01-18T16:13:18.991Z,1.76
2024-01-18T16:16:28.041Z,1.64
2024-01-18T16:19:36.421Z,1.52
2024-01-18T16:22:44.766Z,1.40
2024-01-18T16:25:54.418Z,1.14
2024-01-18T16:29:02.688Z,0.96
2024-01-18T16:32:11.260Z,0.77
2024-01-18T16:35:20.054Z,0.72
2024-01-18T16:38:28.943Z,0.63
2024-01-18T16:41:38.957Z,0.63
2024-01-18T16:44:47.750Z,0.59
2024-01-18T16:47:57.627Z,0.49
2024-01-18T16:51:06.671Z,0.42
2024-01-18T16:54:15.024Z,0.40
2024-01-18T16:57:32.059Z,0.29
2024-01-18T17:00:41.689Z,0.25
2024-01-18T17:03:50.000Z,0.22
2024-01-18T17:06:58.506Z,0.27
2024-01-18T17:10:08.985Z,0.32
2024-01-18T17:13:19.153Z,0.36
2024-01-18T17:16:27.697Z,0.27
2024-01-18T17:19:37.144Z,0.24
2024-01-18T17:22:45.685Z,0.24
2024-01-18T17:25:54.037Z,0.25
2024-01-18T17:29:04.548Z,0.30
2024-01-18T17:32:13.218Z,0.24
2024-01-18T17:35:21.920Z,0.17
2024-01-18T17:38:30.402Z,0.13
2024-01-18T17:41:38.995Z,0.03
2024-01-18T17:44:49.162Z,0.06
2024-01-18T17:47:57.890Z,0.01
2024-01-18T17:51:08.326Z,-0.04
2024-01-18T17:54:16.637Z,-0.14
2024-01-18T17:57:25.339Z,-0.34
2024-01-18T18:00:39.851Z,-0.44
2024-01-18T18:03:48.660Z,-0.49
2024-01-18T18:06:56.927Z,-0.70
2024-01-18T18:10:06.511Z,-0.75
2024-01-18T18:13:15.436Z,-0.80
2024-01-18T18:16:25.382Z,-0.79
2024-01-18T18:19:34.654Z,-0.72
2024-01-18T18:22:43.116Z,-0.64
2024-01-18T18:25:51.319Z,-0.55
2024-01-18T18:28:59.597Z,-0.51
2024-01-18T18:32:09.583Z,-0.42
2024-01-18T18:35:17.876Z,-0.38
2024-01-18T18:38:30.559Z,-0.38
2024-01-18T18:41:41.863Z,-0.39
2024-01-18T18:44:50.242Z,-0.41
2024-01-18T18:48:00.383Z,-0.40
2024-01-18T18:51:10.128Z,-0.38
2024-01-18T18:54:18.409Z,-0.39
2024-01-18T18:57:26.838Z,-0.46
2024-01-18T19:00:35.055Z,-0.54
2024-01-18T19:03:44.856Z,-0.60
2024-01-18T19:06:53.145Z,-0.65
2024-01-18T19:10:01.346Z,-0.68
2024-01-18T19:13:09.639Z,-0.61
2024-01-18T19:16:17.903Z,-0.65
2024-01-18T19:19:28.121Z,-0.68
2024-01-18T19:22:41.112Z,-0.65
2024-01-18T19:25:49.483Z,-0.71
2024-01-18T19:28:58.406Z,-0.71
2024-01-18T19:32:07.608Z,-0.75
2024-01-18T19:35:19.005Z,-0.69
2024-01-18T19:38:27.760Z,-0.72
2024-01-18T19:41:36.406Z,-0.69
2024-01-18T19:44:44.874Z,-0.63
2024-01-18T19:47:53.535Z,-0.69
2024-01-18T19:51:03.954Z,-0.87
2024-01-18T19:54:12.694Z,-0.99
2024-01-18T19:57:22.580Z,-1.01
2024-01-18T20:00:31.651Z,-1.12
2024-01-18T20:03:40.235Z,-1.19
2024-01-18T20:06:50.136Z,-1.27
2024-01-18T20:09:58.427Z,-1.25
2024-01-18T20:13:06.884Z,-1.27
2024-01-18T20:16:15.972Z,-1.32
2024-01-18T20:19:25.876Z,-1.38
2024-01-18T20:22:35.623Z,-1.49
2024-01-18T20:25:44.201Z,-1.48
2024-01-18T20:28:52.503Z,-1.49
2024-01-18T20:32:01.242Z,-1.46
2024-01-18T20:35:10.592Z,-1.45
2024-01-18T20:38:20.515Z,-1.48
2024-01-18T20:41:28.917Z,-1.47
2024-01-18T20:44:37.977Z,-1.50
2024-01-18T20:47:46.275Z,-1.51
2024-01-18T20:50:54.750Z,-1.50
2024-01-18T20:54:04.630Z,-1.56
2024-01-18T20:57:13.051Z,-1.56
2024-01-18T21:00:28.701Z,-1.56
2024-01-18T21:03:40.781Z,-1.56
2024-01-18T21:06:49.315Z,-1.56
2024-01-18T21:09:59.234Z,-1.58
2024-01-18T21:13:07.519Z,-1.61
2024-01-18T21:16:16.251Z,-1.60
2024-01-18T21:19:24.694Z,-1.64
2024-01-18T21:22:33.009Z,-1.64
2024-01-18T21:29:05.292Z,-1.55
2024-01-18T21:32:13.621Z,-1.55
2024-01-18T21:35:22.303Z,-1.51
2024-01-18T21:38:30.761Z,-1.46
2024-01-18T21:41:45.396Z,-1.56
2024-01-18T21:44:54.333Z,-1.53
2024-01-18T21:48:03.202Z,-1.55
2024-01-18T21:51:11.708Z,-1.56
2024-01-18T21:54:20.668Z,-1.54
2024-01-18T21:57:30.548Z,-1.55
2024-01-18T22:00:39.415Z,-1.55
2024-01-18T22:03:48.644Z,-1.55
2024-01-18T22:06:57.133Z,-1.61
2024-01-18T22:10:06.670Z,-1.64
2024-01-18T22:13:16.430Z,-1.59
2024-01-18T22:16:24.655Z,-1.64
2024-01-18T22:22:44.917Z,-1.65
2024-01-18T22:25:53.338Z,-1.68
2024-01-18T22:29:03.001Z,-1.74
2024-01-18T22:32:13.780Z,-1.75
2024-01-18T22:35:22.665Z,-1.82
2024-01-18T22:38:31.374Z,-1.83
2024-01-18T22:41:39.943Z,-1.80
2024-01-18T22:44:49.558Z,-1.80
2024-01-18T22:47:58.875Z,-1.84
2024-01-18T22:51:07.525Z,-1.85
2024-01-18T22:54:15.804Z,-1.92
2024-01-18T22:57:24.101Z,-1.96
2024-01-18T23:00:34.431Z,-2.04
2024-01-18T23:03:44.775Z,-2.06
2024-01-18T23:06:53.165Z,-2.05
2024-01-18T23:10:01.483Z,-2.07
2024-01-18T23:13:09.703Z,-2.06
2024-01-18T23:16:21.249Z,-2.11
2024-01-18T23:19:29.692Z,-2.09
2024-01-18T23:22:38.760Z,-2.10
2024-01-18T23:25:47.565Z,-2.07
2024-01-18T23:28:55.870Z,-2.09
2024-01-18T23:32:06.778Z,-2.08
2024-01-18T23:35:15.122Z,-2.06
2024-01-18T23:38:23.398Z,-2.03
2024-01-18T23:41:32.531Z,-2.06
2024-01-18T23:44:41.655Z,-2.02
2024-01-18T23:47:51.735Z,-2.02
2024-01-18T23:51:00.190Z,-2.02
2024-01-18T23:54:08.790Z,-2.01
2024-01-18T23:57:17.026Z,-2.01
